Time;durP1;ratioP1;P1;durP2;ratioP2;P2;SDS_P1;SDS_P2;PMS_P1;PMS_P2;Temp;Humidity;BMP_temperature;BMP_pressure;BME280_temperature;BME280_humidity;BME280_pressure;Samples;Min_cycle;Max_cycle;Signal;HPM_P1;HPM_P2
2021/12/21 00:02:21;;;;;;;10.42;3.09;;;;;;;-2.00;86.67;100141.47;2285304;70;20241;-78
2021/12/21 00:05:28;;;;;;;8.94;3.13;;;;;;;-1.92;87.05;100136.03;2286056;70;20688;-78
2021/12/21 00:08:30;;;;;;;8.29;3.03;;;;;;;-1.86;87.06;100126.19;2284630;70;20147;-78
2021/12/21 00:11:49;;;;;;;8.94;3.18;;;;;;;-1.81;86.99;100116.28;2285313;70;20224;-78
2021/12/21 00:15:05;;;;;;;9.24;3.59;;;;;;;-1.72;87.19;100113.38;2285244;70;20245;-78
2021/12/21 00:24:41;;;;;;;8.32;2.48;;;;;;;-1.48;87.02;100109.63;2286401;70;20152;-78
2021/12/21 00:27:46;;;;;;;6.81;2.34;;;;;;;-1.44;86.70;100093.72;2284736;70;20189;-78
2021/12/21 00:30:49;;;;;;;6.87;2.27;;;;;;;-1.40;86.43;100095.66;2285110;67;22803;-78
2021/12/21 00:38:14;;;;;;;4.21;1.78;;;;;;;-1.29;85.72;100086.91;2290728;70;20169;-78
2021/12/21 00:41:21;;;;;;;5.60;2.01;;;;;;;-1.22;85.35;100078.81;2279037;70;20171;-78
2021/12/21 00:44:27;;;;;;;7.67;1.73;;;;;;;-1.16;84.94;100082.47;2283849;70;20167;-78
2021/12/21 00:47:46;;;;;;;5.36;1.78;;;;;;;-1.14;84.58;100078.34;2289016;70;20188;-78
2021/12/21 00:50:52;;;;;;;6.74;2.02;;;;;;;-1.10;84.21;100080.25;2284018;70;20353;-78
2021/12/21 00:54:03;;;;;;;7.94;1.98;;;;;;;-1.07;83.96;100080.44;2289301;70;20276;-78
2021/12/21 00:57:31;;;;;;;7.36;1.87;;;;;;;-1.03;83.68;100075.56;2287774;70;20811;-78
2021/12/21 01:00:44;;;;;;;6.02;1.67;;;;;;;-1.01;83.18;100076.50;2278550;70;20155;-78
2021/12/21 01:03:58;;;;;;;;;;;;;;;-1.03;82.77;100078.09;2278693;70;20181;-78
2021/12/21 01:14:14;;;;;;;5.60;1.57;;;;;;;-1.01;82.35;100081.63;2281569;70;20189;-78
2021/12/21 01:21:27;;;;;;;4.87;1.81;;;;;;;-1.06;82.04;100093.25;2258846;70;20181;-78
2021/12/21 01:31:38;;;;;;;;;;;;;;;;;;;;;
2021/12/21 01:52:11;;;;;;;8.64;3.22;;;;;;;-1.78;83.61;100092.69;2033909;79;20280;-79
2021/12/21 01:55:14;;;;;;;9.93;3.64;;;;;;;-1.88;84.25;100092.16;2042040;79;20217;-80
2021/12/21 01:58:17;;;;;;;9.58;3.42;;;;;;;-1.94;84.56;100086.75;2041125;79;20197;-79
2021/12/21 02:01:24;;;;;;;9.21;3.78;;;;;;;-1.99;84.93;100082.16;2022631;79;987036;-80
2021/12/21 02:04:29;;;;;;;9.18;3.88;;;;;;;-2.00;85.22;100080.41;2025146;80;20223;-77
2021/12/21 02:07:32;;;;;;;9.78;3.83;;;;;;;-2.01;85.29;100079.53;2029809;79;20188;-77
2021/12/21 02:10:35;;;;;;;10.08;3.89;;;;;;;-2.06;85.33;100074.97;2036151;79;20170;-77
2021/12/21 02:13:43;;;;;;;9.86;3.39;;;;;;;-2.14;85.22;100077.09;2035451;79;20194;-77
2021/12/21 02:17:12;;;;;;;10.29;3.41;;;;;;;-2.20;85.14;100080.16;2031153;79;20178;-76
2021/12/21 02:23:36;;;;;;;;;;;;;;;-2.31;85.55;100085.44;2035139;79;20191;-77
2021/12/21 02:26:48;;;;;;;6.71;3.04;;;;;;;-2.35;85.74;100080.94;2034407;79;20082;-77
2021/12/21 02:29:52;;;;;;;9.11;3.69;;;;;;;-2.42;85.71;100079.72;2028311;79;20243;-77
2021/12/21 02:32:55;;;;;;;8.47;3.70;;;;;;;-2.45;85.95;100069.38;2022720;79;20279;-76
2021/12/21 02:35:59;;;;;;;9.56;3.26;;;;;;;-2.44;85.95;100068.59;2034067;79;20267;-76
2021/12/21 02:39:05;;;;;;;6.44;2.91;;;;;;;-2.47;86.02;100056.59;2035151;79;20190;-77
2021/12/21 02:42:13;;;;;;;7.73;2.93;;;;;;;-2.56;85.78;100058.59;2031620;79;20610;-77
2021/12/21 02:45:16;;;;;;;6.52;2.71;;;;;;;-2.55;85.94;100057.78;2025057;80;20671;-76
2021/12/21 02:48:19;;;;;;;7.28;2.33;;;;;;;-2.58;86.07;100057.63;2025959;79;20753;-77
2021/12/21 02:51:23;;;;;;;6.29;2.70;;;;;;;-2.67;85.83;100054.56;2030993;79;21081;-76
2021/12/21 02:54:25;;;;;;;4.82;2.12;;;;;;;-2.66;85.89;100057.97;2031090;79;20295;-76
2021/12/21 02:57:28;;;;;;;6.64;3.06;;;;;;;-2.71;85.92;100064.44;2030189;79;20190;-76
2021/12/21 03:00:32;;;;;;;7.71;3.24;;;;;;;-2.71;86.25;100060.22;2029533;77;20996;-76
2021/12/21 03:03:34;;;;;;;7.31;2.43;;;;;;;-2.71;86.37;100065.31;2023516;79;20248;-76
2021/12/21 03:10:01;;;;;;;6.86;2.24;;;;;;;-2.75;86.29;100063.38;2031010;79;20243;-76
2021/12/21 03:16:27;;;;;;;5.28;2.30;;;;;;;-2.76;86.68;100059.09;2029704;79;20186;-76
2021/12/21 03:19:30;;;;;;;3.82;1.89;;;;;;;-2.77;86.75;100067.50;2030432;79;20207;-76
2021/12/21 03:22:33;;;;;;;6.68;1.96;;;;;;;-2.82;86.57;100063.81;2015709;79;20331;-76
2021/12/21 03:25:36;;;;;;;13.22;3.41;;;;;;;-2.83;86.83;100057.84;2022545;79;20193;-76
2021/12/21 03:28:39;;;;;;;7.23;3.30;;;;;;;-2.81;86.88;100063.03;2025855;79;20504;-76
2021/12/21 03:31:42;;;;;;;8.68;2.53;;;;;;;-2.86;86.46;100059.34;2021729;79;20701;-76
2021/12/21 03:34:45;;;;;;;5.68;2.11;;;;;;;-2.85;86.68;100061.09;2030264;79;20178;-76
2021/12/21 03:37:48;;;;;;;6.34;2.57;;;;;;;-2.88;86.62;100066.84;2029757;79;20204;-76
2021/12/21 03:40:52;;;;;;;7.04;2.34;;;;;;;-2.93;86.46;100065.72;2030417;79;20209;-76
2021/12/21 03:43:59;;;;;;;6.40;2.36;;;;;;;-2.90;86.67;100053.19;2024205;79;20207;-76
2021/12/21 03:47:02;;;;;;;4.28;2.02;;;;;;;-2.88;86.71;100048.19;2009140;78;32498;-76
2021/12/21 03:50:13;;;;;;;7.52;2.20;;;;;;;-2.89;86.81;100048.97;2010955;80;20205;-76
2021/12/21 03:53:16;;;;;;;5.31;2.31;;;;;;;-2.91;86.67;100043.81;2009554;80;20176;-76
2021/12/21 03:56:38;;;;;;;6.68;2.72;;;;;;;-2.93;86.78;100045.38;2016883;80;20245;-76
2021/12/21 03:59:43;;;;;;;4.46;2.60;;;;;;;-2.93;86.60;100047.06;2013819;80;20184;-76
2021/12/21 04:02:45;;;;;;;5.98;2.50;;;;;;;-2.94;86.64;100041.09;2016213;80;20197;-76
2021/12/21 04:05:48;;;;;;;4.76;1.92;;;;;;;-2.88;86.69;100048.19;2017745;80;20281;-76
2021/12/21 04:08:51;;;;;;;4.52;2.28;;;;;;;-2.91;86.43;100045.47;2018643;80;21542;-76
2021/12/21 04:11:53;;;;;;;4.42;1.97;;;;;;;-2.95;86.22;100041.00;2017909;80;20232;-75
2021/12/21 04:14:57;;;;;;;7.06;2.20;;;;;;;-2.95;86.18;100048.63;2018148;80;20246;-76
2021/12/21 04:18:02;;;;;;;10.70;2.43;;;;;;;-3.03;85.99;100040.56;2025966;77;27733;-75
2021/12/21 04:21:09;;;;;;;4.40;2.19;;;;;;;-3.05;86.20;100043.00;2028854;79;20204;-76
2021/12/21 04:24:11;;;;;;;7.13;2.08;;;;;;;-3.08;85.94;100034.31;2020499;79;21100;-75
2021/12/21 04:27:15;;;;;;;6.76;2.50;;;;;;;-3.13;85.84;100028.97;2027018;79;20262;-76
2021/12/21 04:30:18;;;;;;;6.97;2.70;;;;;;;-3.13;85.84;100026.44;2026573;77;24111;-75
2021/12/21 04:33:22;;;;;;;7.48;1.84;;;;;;;-3.12;85.97;100020.56;2028760;79;20186;-75
2021/12/21 04:36:25;;;;;;;4.42;1.94;;;;;;;-3.07;86.20;100026.78;2028235;79;20599;-76
2021/12/21 04:39:37;;;;;;;7.38;2.29;;;;;;;-3.12;85.85;100024.75;2027978;79;20275;-76
2021/12/21 04:42:39;;;;;;;6.08;1.98;;;;;;;-3.15;85.83;100024.59;2027521;79;20397;-76
2021/12/21 04:45:42;;;;;;;6.69;1.90;;;;;;;-3.13;86.10;100034.03;2026832;77;22780;-78
2021/12/21 04:48:45;;;;;;;7.40;2.19;;;;;;;-3.13;86.43;100033.16;2028792;79;20708;-75
2021/12/21 04:51:48;;;;;;;9.39;2.16;;;;;;;-3.13;86.75;100034.03;2023766;79;20200;-75
2021/12/21 04:54:51;;;;;;;5.13;2.21;;;;;;;-3.12;86.92;100032.38;2026660;79;20863;-76
2021/12/21 04:57:53;;;;;;;4.97;2.13;;;;;;;-3.13;87.04;100034.03;2028431;79;20193;-75
2021/12/21 05:00:56;;;;;;;5.32;2.08;;;;;;;-3.14;87.13;100039.91;2026487;77;23101;-75
2021/12/21 05:03:59;;;;;;;4.44;2.19;;;;;;;-3.16;87.13;100036.41;2019267;79;20674;-76
2021/12/21 05:07:02;;;;;;;5.26;1.64;;;;;;;-3.17;87.25;100033.78;2026941;79;21246;-75
2021/12/21 05:10:08;;;;;;;7.49;1.88;;;;;;;-3.18;87.13;100037.09;2027410;79;20191;-75
2021/12/21 05:13:11;;;;;;;6.64;2.00;;;;;;;-3.20;86.94;100036.13;2027757;79;20605;-75
2021/12/21 05:16:14;;;;;;;3.62;1.57;;;;;;;-3.25;86.67;100033.28;2025885;77;23901;-75
2021/12/21 05:19:16;;;;;;;3.83;1.80;;;;;;;-3.22;86.66;100027.56;2028001;79;20250;-76
2021/12/21 05:22:19;;;;;;;5.43;2.01;;;;;;;-3.31;86.04;100032.06;2028187;79;20282;-75
2021/12/21 05:25:21;;;;;;;6.34;2.60;;;;;;;-3.30;86.29;100033.81;2027774;79;20763;-75
2021/12/21 05:28:24;;;;;;;5.56;2.30;;;;;;;-3.31;86.33;100029.53;2027638;79;20258;-76
2021/12/21 05:31:27;;;;;;;6.46;2.47;;;;;;;-3.31;86.28;100027.88;2026987;77;25984;-76
2021/12/21 05:34:30;;;;;;;6.83;2.16;;;;;;;-3.29;86.49;100027.94;2028669;80;20202;-76
2021/12/21 05:37:34;;;;;;;6.23;2.80;;;;;;;-3.31;86.35;100032.06;2029924;80;21041;-75
2021/12/21 05:40:43;;;;;;;7.60;2.86;;;;;;;-3.30;86.42;100031.28;2027048;80;20163;-76
2021/12/21 05:43:45;;;;;;;10.77;3.23;;;;;;;-3.30;86.45;100023.66;2029274;79;20666;-75
2021/12/21 05:46:50;;;;;;;10.46;4.26;;;;;;;-3.35;86.25;100029.34;2029229;77;21887;-76
2021/12/21 05:49:53;;;;;;;6.80;3.14;;;;;;;-3.33;86.31;100029.44;2029078;79;20259;-75
2021/12/21 05:52:55;;;;;;;9.44;3.24;;;;;;;-3.35;86.32;100039.50;2029682;80;20666;-75
2021/12/21 05:55:58;;;;;;;13.58;3.20;;;;;;;-3.33;86.44;100044.66;2029165;80;20258;-75
2021/12/21 05:59:02;;;;;;;9.71;3.60;;;;;;;-3.30;86.46;100038.91;2029316;79;20182;-75
2021/12/21 06:02:07;;;;;;;9.88;3.50;;;;;;;-3.30;86.47;100044.84;2027259;77;24949;-75
2021/12/21 06:05:10;;;;;;;12.14;3.63;;;;;;;-3.31;86.49;100043.09;2017277;79;20291;-75
2021/12/21 06:08:13;;;;;;;11.06;3.72;;;;;;;-3.29;86.79;100044.06;2029099;80;20214;-76
2021/12/21 06:11:16;;;;;;;8.20;3.40;;;;;;;-3.33;86.89;100044.66;2028139;79;20832;-75
2021/12/21 06:14:37;;;;;;;15.26;3.99;;;;;;;-3.32;87.21;100048.09;2030803;79;20194;-76
2021/12/21 06:25:22;;;;;;;7.61;3.23;;;;;;;-3.44;87.62;100058.34;2017930;79;20273;-75
2021/12/21 06:27:48;;;;;;;18.69;4.74;;;;;;;-3.42;87.82;100056.78;2028740;79;20635;-77
2021/12/21 06:30:51;;;;;;;13.16;4.97;;;;;;;-3.44;87.94;100065.97;2027375;79;20205;-75
2021/12/21 06:33:54;;;;;;;10.64;4.20;;;;;;;-3.42;88.34;100057.66;2025239;79;20171;-76
2021/12/21 06:36:56;;;;;;;11.64;3.82;;;;;;;-3.40;88.65;100066.28;2028677;79;20183;-75
2021/12/21 06:39:59;;;;;;;13.03;4.33;;;;;;;-3.43;88.49;100073.69;2029465;79;20290;-75
2021/12/21 06:43:03;;;;;;;12.21;4.29;;;;;;;-3.43;88.52;100067.72;2028145;79;20215;-75
2021/12/21 06:52:49;;;;;;;14.90;4.44;;;;;;;-3.49;88.56;100063.16;2028716;79;20207;-75
2021/12/21 06:55:51;;;;;;;16.59;4.97;;;;;;;-3.47;88.84;100060.72;2029051;79;21004;-75
2021/12/21 06:58:55;;;;;;;22.29;5.70;;;;;;;-3.45;88.84;100060.00;2017491;79;20623;-75
2021/12/21 07:01:58;;;;;;;13.43;5.30;;;;;;;-3.45;nan;100065.09;2027119;77;22970;-75
2021/12/21 07:05:01;;;;;;;11.11;4.27;;;;;;;-3.47;88.48;100061.59;2028714;79;20445;-75
2021/12/21 07:08:04;;;;;;;13.22;4.56;;;;;;;-3.47;88.50;100065.78;2024776;79;20182;-75
2021/12/21 07:11:15;;;;;;;13.97;4.21;;;;;;;-3.46;88.75;100065.00;2028331;79;20178;-75
2021/12/21 07:21:02;;;;;;;19.57;6.04;;;;;;;-3.38;89.04;100077.41;2029089;79;20179;-75
2021/12/21 07:24:05;;;;;;;9.07;3.61;;;;;;;-3.38;88.91;100079.06;2028556;79;20178;-75
2021/12/21 07:27:08;;;;;;;10.00;3.97;;;;;;;-3.30;89.04;100066.81;2028164;79;20178;-74
2021/12/21 07:30:11;;;;;;;7.07;3.71;;;;;;;-3.32;88.82;100069.28;2026069;79;20225;-74
2021/12/21 07:33:15;;;;;;;11.08;3.53;;;;;;;-3.36;88.65;100064.78;2028189;77;22126;-75
2021/12/21 07:36:18;;;;;;;8.81;3.59;;;;;;;-3.33;88.87;100070.06;2029523;79;20202;-75
2021/12/21 07:39:21;;;;;;;10.40;3.39;;;;;;;-3.30;88.83;100062.63;2030518;79;20347;-77
2021/12/21 07:42:46;;;;;;;5.24;2.61;;;;;;;-3.29;88.73;100066.91;2032649;79;20791;-76
2021/12/21 07:45:52;;;;;;;6.14;2.52;;;;;;;-3.26;88.79;100064.56;2023416;80;20168;-76
2021/12/21 07:48:55;;;;;;;10.39;2.89;;;;;;;-3.27;89.04;100065.34;2009152;80;20492;-75
2021/12/21 07:51:58;;;;;;;5.72;2.33;;;;;;;-3.23;89.29;100064.75;2004578;80;20192;-74
2021/12/21 07:55:01;;;;;;;9.32;3.41;;;;;;;-3.23;89.11;100066.41;2017266;80;20396;-74
2021/12/21 07:58:04;;;;;;;7.92;2.64;;;;;;;-3.18;88.92;100070.13;2016888;80;20761;-74
2021/12/21 08:01:06;;;;;;;6.22;2.96;;;;;;;-3.15;88.81;100072.84;2015386;77;22071;-74
2021/12/21 08:04:10;;;;;;;8.83;2.54;;;;;;;-3.12;89.08;100078.09;2015893;80;20195;-74
2021/12/21 08:07:17;;;;;;;10.01;3.17;;;;;;;-3.11;88.92;100083.25;2015322;80;20196;-74
2021/12/21 08:10:30;;;;;;;6.60;3.81;;;;;;;-3.08;88.97;100085.09;2016076;80;20203;-76
2021/12/21 08:13:34;;;;;;;10.10;3.38;;;;;;;-2.99;89.16;100087.34;2015633;80;21104;-76
2021/12/21 08:16:38;;;;;;;7.09;2.94;;;;;;;-2.79;89.33;100097.03;2017156;80;20191;-75
2021/12/21 08:19:53;;;;;;;11.31;3.69;;;;;;;-2.62;89.33;100092.94;2015427;80;20214;-74
2021/12/21 08:23:00;;;;;;;7.79;2.98;;;;;;;-2.38;89.37;100088.41;2008998;80;20199;-75
2021/12/21 08:26:14;;;;;;;6.01;2.88;;;;;;;-2.08;89.08;100089.28;2004757;80;20231;-75
2021/12/21 08:29:17;;;;;;;10.39;3.69;;;;;;;-1.89;88.27;100089.53;2005098;80;20235;-75
2021/12/21 08:32:20;;;;;;;9.28;3.30;;;;;;;-1.66;87.43;100088.25;2018623;77;27031;-77
2021/12/21 08:35:25;;;;;;;10.70;3.11;;;;;;;-1.36;86.86;100083.97;2020495;80;20191;-77
2021/12/21 08:38:30;;;;;;;4.70;3.20;;;;;;;-1.05;85.89;100083.94;2017835;80;20306;-77
2021/12/21 08:41:40;;;;;;;9.01;3.14;;;;;;;-0.80;84.77;100089.50;2010733;80;20264;-77
2021/12/21 08:44:47;;;;;;;9.69;3.37;;;;;;;-0.57;83.63;100098.31;2025888;79;20229;-76
2021/12/21 08:47:49;;;;;;;6.51;3.22;;;;;;;-0.37;82.50;100086.56;2026061;79;20174;-77
2021/12/21 08:50:55;;;;;;;9.24;3.48;;;;;;;-0.16;81.57;100085.09;2019654;79;20264;-77
2021/12/21 08:54:32;;;;;;;12.41;3.68;;;;;;;0.05;80.68;100089.50;2017058;79;20182;-77
2021/12/21 08:58:07;;;;;;;7.62;2.73;;;;;;;0.22;79.68;100086.06;2019827;80;20719;-77
2021/12/21 09:01:33;;;;;;;9.94;3.22;;;;;;;0.48;78.78;100087.28;2001251;80;20193;-77
2021/12/21 09:04:39;;;;;;;9.23;2.95;;;;;;;0.70;78.11;100082.34;2002574;80;21527;-77
2021/12/21 09:13:09;;;;;;;9.82;3.98;;;;;;;1.09;75.68;100079.88;2003100;80;20857;-78
2021/12/21 10:08:42;;;;;;;10.65;3.59;;;;;;;2.43;70.17;100075.22;1983875;70;20356;-78
2021/12/21 10:20:39;;;;;;;6.82;2.75;;;;;;;2.03;71.78;100059.97;1965816;82;20456;-77
2021/12/21 10:28:37;;;;;;;6.74;2.46;;;;;;;1.79;71.83;100058.13;1962859;82;20861;-77
2021/12/21 10:45:08;;;;;;;7.22;2.92;;;;;;;1.80;72.96;100049.69;1981850;81;20596;-76
2021/12/21 11:57:18;;;;;;;4.68;2.01;;;;;;;2.64;67.76;99988.88;1981134;81;20358;-77
2021/12/21 12:35:34;;;;;;;2.58;0.81;;;;;;;3.02;64.89;99956.91;2004481;71;21027;-78
2021/12/21 12:38:50;;;;;;;4.47;0.95;;;;;;;3.06;64.81;99960.47;1977424;82;20349;-75
2021/12/21 12:42:04;;;;;;;2.84;1.30;;;;;;;3.10;65.04;99964.00;1976936;82;20193;-75
2021/12/21 12:50:53;;;;;;;1.73;0.94;;;;;;;3.11;64.04;99958.06;1978538;82;20410;-76
2021/12/21 12:59:44;;;;;;;2.51;1.01;;;;;;;3.16;64.39;99949.69;1980137;81;20346;-75
2021/12/21 13:03:38;;;;;;;3.44;0.90;;;;;;;3.19;64.81;99944.66;1980265;82;20652;-76
2021/12/21 13:07:44;;;;;;;3.24;0.90;;;;;;;3.22;64.92;99934.50;1971774;82;20310;-75
2021/12/21 13:16:22;;;;;;;4.25;1.09;;;;;;;3.23;63.37;99927.66;1974796;82;20360;-75
2021/12/21 13:49:54;;;;;;;4.14;1.66;;;;;;;2.95;62.51;99911.34;1970470;82;20455;-76
2021/12/21 14:06:00;;;;;;;4.34;1.70;;;;;;;2.79;62.87;99921.91;2011377;71;20447;-77
2021/12/21 14:09:26;;;;;;;1.99;1.17;;;;;;;2.77;63.14;99912.41;1981317;82;21217;-76
2021/12/21 14:47:47;;;;;;;3.74;1.23;;;;;;;2.40;63.34;99919.66;1966200;71;2364337;-77
2021/12/21 14:55:25;;;;;;;2.59;1.23;;;;;;;2.31;64.08;99921.88;2019396;71;20243;-78
2021/12/21 15:25:05;;;;;;;3.70;1.17;;;;;;;1.95;65.92;99943.53;1989521;71;20329;-77
2021/12/21 15:45:33;;;;;;;2.45;1.46;;;;;;;1.58;67.84;99936.97;1984443;71;32709;-75
2021/12/21 15:48:36;;;;;;;4.70;1.34;;;;;;;1.43;67.79;99928.69;1986067;81;20681;-79
2021/12/21 15:51:38;;;;;;;5.81;1.86;;;;;;;1.34;68.44;99941.09;1983342;81;20349;-80
2021/12/21 15:54:44;;;;;;;5.65;2.24;;;;;;;1.26;68.72;99942.47;1982200;81;20794;-76
2021/12/21 15:57:47;;;;;;;3.03;1.64;;;;;;;1.19;69.19;99938.78;1982455;81;20509;-77
2021/12/21 16:00:50;;;;;;;5.20;1.67;;;;;;;1.10;69.28;99939.28;1980425;79;22260;-75
2021/12/21 16:03:56;;;;;;;6.71;1.49;;;;;;;1.01;69.33;99940.56;1982218;81;20309;-76
2021/12/21 16:06:59;;;;;;;2.80;1.49;;;;;;;0.97;69.35;99941.25;1980821;82;20337;-76
2021/12/21 16:10:03;;;;;;;4.10;1.60;;;;;;;0.93;69.69;99947.06;1981363;81;20365;-75
2021/12/21 16:13:06;;;;;;;4.94;1.39;;;;;;;0.86;70.04;99951.00;1981249;81;20364;-76
2021/12/21 16:16:08;;;;;;;4.88;1.96;;;;;;;0.82;70.01;99959.38;1979746;79;21834;-76
2021/12/21 16:19:11;;;;;;;5.64;1.67;;;;;;;0.77;69.63;99964.28;1981578;81;21193;-74
2021/12/21 16:22:14;;;;;;;3.96;1.64;;;;;;;0.73;69.67;99967.53;1981188;82;20210;-74
2021/12/21 16:25:17;;;;;;;2.72;1.10;;;;;;;0.69;69.70;99967.28;1980735;81;20176;-74
2021/12/21 16:28:20;;;;;;;4.40;1.58;;;;;;;0.50;70.58;99981.81;1981019;81;20401;-74
2021/12/21 16:31:23;;;;;;;5.13;2.01;;;;;;;0.38;71.02;99976.16;1978561;79;20228;-74
2021/12/21 16:34:26;;;;;;;4.67;1.80;;;;;;;0.34;71.50;99978.50;1980956;81;20374;-74
2021/12/21 16:37:29;;;;;;;3.93;1.89;;;;;;;0.25;71.32;99977.28;1981325;81;20263;-76
2021/12/21 16:40:32;;;;;;;2.88;1.56;;;;;;;0.20;71.54;99980.44;1983234;81;20188;-74
2021/12/21 16:43:36;;;;;;;2.82;1.44;;;;;;;0.13;71.44;99978.38;1980839;81;21215;-75
2021/12/21 16:46:39;;;;;;;2.35;1.56;;;;;;;0.11;71.42;99980.00;1979578;79;24282;-75
2021/12/21 16:49:42;;;;;;;2.94;1.50;;;;;;;0.09;71.35;99976.50;1980844;81;20413;-74
2021/12/21 16:52:45;;;;;;;2.67;1.83;;;;;;;0.08;71.57;99973.06;1980496;81;20184;-74
2021/12/21 16:55:47;;;;;;;4.48;1.49;;;;;;;0.05;71.16;99979.72;1977593;81;20271;-74
2021/12/21 16:58:51;;;;;;;1.86;1.40;;;;;;;0.01;71.34;99982.94;1980562;81;20353;-75
2021/12/21 17:01:54;;;;;;;3.28;1.94;;;;;;;-0.05;71.43;99984.38;1978684;79;34503;-74
2021/12/21 17:04:56;;;;;;;4.02;2.13;;;;;;;-0.03;71.53;99992.97;1980365;81;20769;-74
2021/12/21 17:08:00;;;;;;;2.80;1.88;;;;;;;-0.02;71.54;100001.50;1980549;82;20265;-74
2021/12/21 17:11:03;;;;;;;4.89;2.16;;;;;;;0.03;71.45;99991.53;1980920;81;20200;-75
2021/12/21 17:14:06;;;;;;;3.97;1.98;;;;;;;-0.01;71.52;99995.59;1980985;81;20200;-75
2021/12/21 17:17:08;;;;;;;2.52;1.86;;;;;;;0.02;71.75;100000.88;1979090;79;25400;-74
2021/12/21 17:20:13;;;;;;;3.42;1.79;;;;;;;0.04;71.50;100006.06;1979838;82;20330;-74
2021/12/21 17:23:16;;;;;;;7.04;1.92;;;;;;;-0.02;71.87;100007.50;1980175;82;20249;-74
2021/12/21 17:26:19;;;;;;;3.22;2.00;;;;;;;-0.10;72.03;100005.41;1980734;82;20222;-74
2021/12/21 17:29:21;;;;;;;2.89;1.93;;;;;;;-0.14;71.79;100018.81;1980767;82;20300;-74
2021/12/21 17:32:24;;;;;;;4.71;2.29;;;;;;;-0.21;71.91;100017.63;1978871;79;21612;-74
2021/12/21 17:35:27;;;;;;;3.04;2.06;;;;;;;-0.26;72.19;100026.75;1980705;82;20210;-74
2021/12/21 17:38:32;;;;;;;3.40;2.28;;;;;;;-0.31;72.50;100026.53;1981574;82;20197;-74
2021/12/21 17:41:35;;;;;;;3.99;2.26;;;;;;;-0.36;72.83;100030.53;1982959;82;20184;-72
2021/12/21 17:44:42;;;;;;;4.39;2.71;;;;;;;-0.42;73.01;100030.22;1981198;82;20211;-72
2021/12/21 17:47:45;;;;;;;7.31;3.12;;;;;;;-0.45;73.56;100024.97;1979188;80;20311;-72
2021/12/21 17:50:54;;;;;;;8.20;3.16;;;;;;;-0.45;73.95;100024.97;1980020;82;20290;-72
2021/12/21 17:53:58;;;;;;;4.96;2.67;;;;;;;-0.47;73.93;100023.16;1979544;82;20204;-73
2021/12/21 17:57:01;;;;;;;4.59;3.02;;;;;;;-0.48;73.90;100024.81;1980773;82;20220;-72
2021/12/21 18:00:06;;;;;;;4.18;2.94;;;;;;;-0.49;74.14;100030.72;1978861;82;20244;-72
2021/12/21 18:03:09;;;;;;;4.91;3.17;;;;;;;-0.56;74.11;100028.66;1979826;79;23612;-72
2021/12/21 18:06:12;;;;;;;7.94;4.30;;;;;;;-0.62;74.57;100029.22;1980750;82;20197;-72
2021/12/21 18:09:14;;;;;;;4.99;3.49;;;;;;;-0.65;75.29;100034.19;1981923;82;20262;-72
2021/12/21 18:12:17;;;;;;;6.61;3.33;;;;;;;-0.59;75.83;100035.28;1980740;82;20245;-74
2021/12/21 18:15:20;;;;;;;4.51;2.90;;;;;;;-0.53;75.97;100033.06;1978304;81;20236;-73
2021/12/21 18:18:23;;;;;;;7.53;3.11;;;;;;;-0.52;75.73;100032.25;1980166;79;28024;-73
2021/12/21 18:21:26;;;;;;;5.00;2.96;;;;;;;-0.58;75.55;100043.00;1980914;81;20214;-73
2021/12/21 18:24:28;;;;;;;6.88;3.61;;;;;;;-0.63;75.75;100049.56;1981139;81;20218;-72
2021/12/21 18:27:32;;;;;;;6.72;3.22;;;;;;;-0.69;75.90;100049.25;1980086;82;20249;-72
2021/12/21 18:30:34;;;;;;;8.28;3.51;;;;;;;-0.75;75.87;100046.38;1978825;79;26670;-74
2021/12/21 18:33:37;;;;;;;6.18;3.88;;;;;;;-0.78;76.40;100047.09;1979974;81;20781;-74
2021/12/21 18:36:40;;;;;;;5.51;3.38;;;;;;;-0.74;76.72;100061.75;1980061;81;20263;-73
2021/12/21 18:39:43;;;;;;;4.38;3.72;;;;;;;-0.74;76.73;100058.31;1981155;81;20200;-74
2021/12/21 18:42:45;;;;;;;7.39;4.01;;;;;;;-0.78;76.91;100054.75;1977277;81;20220;-74
2021/12/21 18:45:48;;;;;;;5.43;3.83;;;;;;;-0.74;77.17;100063.44;1976369;79;21247;-74
2021/12/21 18:48:51;;;;;;;7.72;4.03;;;;;;;-0.71;77.36;100064.50;1980952;82;20200;-74
2021/12/21 18:51:53;;;;;;;7.43;4.42;;;;;;;-0.71;77.15;100056.84;1981665;81;20235;-74
2021/12/21 18:54:56;;;;;;;6.19;3.98;;;;;;;-0.73;77.10;100055.84;1980688;81;20193;-73
2021/12/21 18:58:19;;;;;;;6.37;4.82;;;;;;;-0.76;77.07;100067.56;1983370;81;20249;-73
2021/12/21 19:01:25;;;;;;;8.30;5.58;;;;;;;-0.76;77.09;100070.13;1978973;79;22880;-73
2021/12/21 19:04:27;;;;;;;11.11;5.32;;;;;;;-0.77;77.17;100065.81;1980603;81;20291;-73
2021/12/21 19:07:32;;;;;;;9.86;5.07;;;;;;;-0.79;77.21;100072.53;1980873;81;20205;-74
2021/12/21 19:10:36;;;;;;;6.48;4.52;;;;;;;-0.85;76.97;100072.22;1980872;81;20204;-73
2021/12/21 19:13:39;;;;;;;9.56;4.71;;;;;;;-0.96;77.16;100072.53;1980952;81;20694;-73
2021/12/21 19:16:42;;;;;;;12.97;6.91;;;;;;;-1.00;77.42;100075.72;1978396;79;21792;-74
2021/12/21 19:19:45;;;;;;;13.14;6.43;;;;;;;-1.05;77.49;100071.19;1978919;81;20200;-74
2021/12/21 19:22:47;;;;;;;9.57;5.33;;;;;;;-1.07;77.67;100063.47;1980573;81;20240;-74
2021/12/21 19:25:51;;;;;;;6.82;4.11;;;;;;;-1.11;78.10;100071.72;1980014;81;20204;-73
2021/12/21 19:28:53;;;;;;;7.03;4.29;;;;;;;-1.13;78.21;100077.53;1980204;81;20216;-74
2021/12/21 19:31:56;;;;;;;6.79;4.20;;;;;;;-1.21;78.44;100082.25;1978523;79;21184;-74
2021/12/21 19:35:01;;;;;;;6.11;3.77;;;;;;;-1.26;78.79;100087.09;1980445;81;21060;-74
2021/12/21 19:38:05;;;;;;;6.42;3.98;;;;;;;-1.34;78.69;100078.16;1980082;82;20188;-74
2021/12/21 19:41:07;;;;;;;7.92;3.54;;;;;;;-1.37;79.08;100088.19;1979616;81;20202;-75
2021/12/21 19:44:10;;;;;;;6.78;3.57;;;;;;;-1.49;79.83;100084.09;1979763;81;20208;-73
2021/12/21 19:47:13;;;;;;;7.11;4.16;;;;;;;-1.54;80.05;100084.72;1977963;79;22393;-74
2021/12/21 19:50:21;;;;;;;6.68;3.79;;;;;;;-1.55;80.58;100085.50;1980132;82;20245;-73
2021/12/21 19:53:24;;;;;;;10.21;4.53;;;;;;;-1.51;80.63;100084.00;1976554;81;20204;-73
2021/12/21 19:56:28;;;;;;;7.01;3.32;;;;;;;-1.52;80.79;100087.34;1980345;81;20228;-73
2021/12/21 19:59:31;;;;;;;6.67;4.22;;;;;;;-1.53;80.77;100090.69;1980558;81;20184;-74
2021/12/21 20:02:34;;;;;;;8.81;4.41;;;;;;;-1.56;80.98;100096.50;1978251;79;22383;-73
2021/12/21 20:05:37;;;;;;;15.06;6.39;;;;;;;-1.56;80.94;100093.94;1979404;81;20192;-74
2021/12/21 20:08:40;;;;;;;33.08;12.78;;;;;;;-1.56;80.75;100100.72;1979714;81;20300;-73
2021/12/21 20:14:55;;;;;;;13.76;7.60;;;;;;;-1.49;80.67;100101.91;1982180;81;20204;-73
2021/12/21 20:18:00;;;;;;;11.30;6.44;;;;;;;-1.52;80.37;100103.50;1979380;79;20497;-73
2021/12/21 20:21:03;;;;;;;10.91;5.73;;;;;;;-1.56;80.23;100104.13;1980816;81;20180;-73
2021/12/21 20:24:05;;;;;;;9.64;5.06;;;;;;;-1.62;80.34;100100.34;1985074;81;20251;-73
2021/12/21 20:27:09;;;;;;;8.27;4.70;;;;;;;-1.65;80.77;100106.16;1981064;81;20227;-73
2021/12/21 20:30:13;;;;;;;7.09;4.58;;;;;;;-1.66;81.00;100101.84;1978926;81;20229;-73
2021/12/21 20:33:15;;;;;;;10.96;5.02;;;;;;;-1.72;81.20;100095.56;1980271;79;22575;-73
2021/12/21 20:36:18;;;;;;;8.99;4.20;;;;;;;-1.77;81.20;100099.53;1980092;81;20204;-73
2021/12/21 20:39:21;;;;;;;7.22;4.11;;;;;;;-1.76;81.41;100103.81;1980351;81;20310;-73
2021/12/21 20:42:24;;;;;;;7.23;4.47;;;;;;;-1.77;81.35;100113.13;1980317;81;20193;-73
2021/12/21 20:45:32;;;;;;;6.11;4.13;;;;;;;-1.78;81.03;100118.13;1979175;79;24084;-73
2021/12/21 20:48:35;;;;;;;8.96;4.21;;;;;;;-1.84;81.27;100123.75;1981814;81;20184;-75
2021/12/21 20:51:38;;;;;;;6.59;4.27;;;;;;;-1.87;81.84;100121.03;1981022;81;20205;-74
2021/12/21 20:54:40;;;;;;;6.87;4.24;;;;;;;-1.90;82.16;100134.47;1980884;81;20213;-73
2021/12/21 20:57:44;;;;;;;10.40;4.71;;;;;;;-1.91;82.19;100137.78;1980491;82;20282;-73
2021/12/21 21:00:49;;;;;;;11.97;4.07;;;;;;;-1.94;81.86;100131.66;1979194;79;23057;-74
2021/12/21 21:03:52;;;;;;;7.69;4.76;;;;;;;-1.96;82.00;100126.50;1980853;81;20226;-75
2021/12/21 21:06:54;;;;;;;6.48;4.23;;;;;;;-2.00;81.73;100126.19;1980908;82;20735;-75
2021/12/21 21:09:57;;;;;;;6.59;4.42;;;;;;;-2.00;81.77;100121.13;1980807;81;20199;-75
2021/12/21 21:13:00;;;;;;;7.21;3.91;;;;;;;-2.05;81.96;100115.78;1980489;81;20765;-75
2021/12/21 21:16:05;;;;;;;7.93;4.39;;;;;;;-2.07;82.09;100111.41;1979057;79;20204;-73
2021/12/21 21:19:07;;;;;;;6.97;4.31;;;;;;;-2.16;82.05;100112.59;1980220;81;20908;-73
2021/12/21 21:22:10;;;;;;;7.00;3.82;;;;;;;-2.16;82.59;100112.59;1980032;82;20258;-73